Time;durP1;ratioP1;P1;durP2;ratioP2;P2;SDS_P1;SDS_P2;PMS_P1;PMS_P2;Temp;Humidity;BMP_temperature;BMP_pressure;BME280_temperature;BME280_humidity;BME280_pressure;Samples;Min_cycle;Max_cycle;Signal;HPM_P1;HPM_P2
2021/03/31 00:02:22;;;;;;;8.37;6.70;;;10.30;50.00;;;;;;5053958;28;20182;-43
2021/03/31 00:04:48;;;;;;;6.57;5.87;;;10.30;50.20;;;;;;5057234;28;20428;-42
2021/03/31 00:07:14;;;;;;;10.30;6.80;;;10.30;50.60;;;;;;5059238;28;20190;-44
2021/03/31 00:09:40;;;;;;;10.33;7.03;;;10.20;50.70;;;;;;5051811;28;20454;-42
2021/03/31 00:12:07;;;;;;;9.37;7.67;;;10.20;50.90;;;;;;5061771;28;20533;-42
2021/03/31 00:14:34;;;;;;;13.03;7.60;;;10.20;51.50;;;;;;5080118;28;20236;-42
2021/03/31 00:16:59;;;;;;;12.13;9.10;;;10.20;52.10;;;;;;5081119;28;20430;-43
2021/03/31 00:19:25;;;;;;;12.00;9.90;;;10.10;52.90;;;;;;5081538;28;20415;-42
2021/03/31 00:21:51;;;;;;;9.50;8.50;;;10.00;53.40;;;;;;5081539;28;20566;-40
2021/03/31 00:24:17;;;;;;;11.80;8.87;;;10.00;53.90;;;;;;5080627;28;20185;-42
2021/03/31 00:26:43;;;;;;;11.53;8.90;;;9.90;55.50;;;;;;5080529;28;20767;-42
2021/03/31 00:29:08;;;;;;;11.33;9.60;;;9.90;56.50;;;;;;5080909;28;20169;-42
2021/03/31 00:31:35;;;;;;;9.07;8.07;;;9.80;57.20;;;;;;5080874;28;20254;-42
2021/03/31 00:34:00;;;;;;;12.50;8.30;;;9.70;57.70;;;;;;5080846;28;20207;-43
2021/03/31 00:36:26;;;;;;;11.70;8.70;;;9.70;58.80;;;;;;5080821;28;20419;-42
2021/03/31 00:38:52;;;;;;;9.60;8.03;;;9.60;59.60;;;;;;5081386;28;20272;-43
2021/03/31 00:41:18;;;;;;;10.70;7.10;;;9.50;60.50;;;;;;5080589;28;20181;-42
2021/03/31 00:43:44;;;;;;;10.33;6.73;;;9.40;62.00;;;;;;5080728;28;20260;-41
2021/03/31 00:46:10;;;;;;;10.67;8.10;;;9.40;62.80;;;;;;5080871;28;20530;-43
2021/03/31 00:48:35;;;;;;;9.73;7.57;;;9.30;64.40;;;;;;5080448;28;20181;-41
2021/03/31 00:51:03;;;;;;;8.70;7.10;;;9.30;65.00;;;;;;5080881;28;20211;-42
2021/03/31 00:53:41;;;;;;;9.50;7.40;;;9.30;66.50;;;;;;5080786;28;20198;-42
2021/03/31 00:56:08;;;;;;;10.77;7.63;;;9.30;67.50;;;;;;5080536;28;20426;-42
2021/03/31 00:58:35;;;;;;;9.30;7.10;;;9.20;68.50;;;;;;5080730;28;20412;-42
2021/03/31 01:01:02;;;;;;;12.20;7.47;;;9.20;69.00;;;;;;5080238;28;20832;-42
2021/03/31 01:03:27;;;;;;;9.63;8.63;;;9.20;70.30;;;;;;5080399;28;20690;-42
2021/03/31 01:09:15;;;;;;;12.80;8.57;;;9.20;71.40;;;;;;5080630;28;20473;-41
2021/03/31 01:12:02;;;;;;;10.27;8.33;;;9.10;72.00;;;;;;5080271;28;20424;-43
2021/03/31 01:14:34;;;;;;;9.77;8.00;;;9.10;72.60;;;;;;5079881;28;20801;-43
2021/03/31 01:17:05;;;;;;;10.33;8.80;;;9.10;73.50;;;;;;5080436;28;20488;-42
2021/03/31 01:19:59;;;;;;;13.73;9.70;;;9.00;74.00;;;;;;5062175;28;20435;-41
2021/03/31 01:22:49;;;;;;;9.33;8.43;;;9.00;74.80;;;;;;5080149;28;20844;-41
2021/03/31 01:25:35;;;;;;;11.40;9.10;;;9.00;75.30;;;;;;5080135;28;20682;-42
2021/03/31 01:28:22;;;;;;;10.67;8.70;;;8.90;75.60;;;;;;5080039;28;20433;-42
2021/03/31 01:30:57;;;;;;;11.13;9.10;;;8.90;76.10;;;;;;5080018;28;20427;-42
2021/03/31 01:33:46;;;;;;;10.17;8.30;;;8.90;75.90;;;;;;5080002;28;20731;-42
2021/03/31 01:36:17;;;;;;;11.23;9.13;;;8.90;76.20;;;;;;5079569;28;20697;-41
2021/03/31 01:38:49;;;;;;;11.90;9.10;;;8.90;76.80;;;;;;5079424;28;20423;-42
2021/03/31 01:41:17;;;;;;;10.70;9.27;;;8.90;76.80;;;;;;5061941;28;20434;-42
2021/03/31 01:43:44;;;;;;;12.07;9.70;;;8.90;77.10;;;;;;5080006;28;20480;-41
2021/03/31 01:46:10;;;;;;;12.07;9.17;;;8.80;77.30;;;;;;5062367;28;20834;-42
2021/03/31 01:48:36;;;;;;;11.00;9.17;;;8.80;77.30;;;;;;5079657;28;20470;-42
2021/03/31 01:51:08;;;;;;;10.07;9.07;;;8.80;77.90;;;;;;5080007;28;20453;-42
2021/03/31 01:53:34;;;;;;;11.50;10.30;;;8.80;77.80;;;;;;5079580;28;20724;-41
2021/03/31 01:56:00;;;;;;;10.70;9.40;;;8.80;78.10;;;;;;5045076;28;20431;-42
2021/03/31 01:58:26;;;;;;;10.47;9.37;;;8.70;78.90;;;;;;5078648;28;20407;-43
2021/03/31 02:00:53;;;;;;;12.57;10.10;;;8.70;78.80;;;;;;5078630;28;20878;-42
2021/03/31 02:03:20;;;;;;;10.73;9.20;;;8.70;79.20;;;;;;5078920;28;20768;-41
2021/03/31 02:05:47;;;;;;;11.17;8.47;;;8.60;79.70;;;;;;5079447;28;20853;-41
2021/03/31 02:08:13;;;;;;;10.90;8.77;;;8.60;79.90;;;;;;5079055;28;20408;-42
2021/03/31 02:10:40;;;;;;;10.57;9.27;;;8.60;79.50;;;;;;5083654;28;20430;-42
2021/03/31 02:13:08;;;;;;;9.43;8.43;;;8.50;79.70;;;;;;5080928;28;20426;-42
2021/03/31 02:15:35;;;;;;;9.40;8.50;;;8.50;80.40;;;;;;5099519;28;20570;-42
2021/03/31 02:18:02;;;;;;;11.07;8.40;;;8.40;80.60;;;;;;5100026;28;20417;-42
2021/03/31 02:20:28;;;;;;;9.03;7.83;;;8.40;80.70;;;;;;5098823;28;20410;-42
2021/03/31 02:22:54;;;;;;;8.70;7.77;;;8.40;81.20;;;;;;5098876;28;20411;-43
2021/03/31 02:25:20;;;;;;;11.50;8.57;;;8.40;81.40;;;;;;5099356;28;20856;-42
2021/03/31 02:27:46;;;;;;;9.50;8.07;;;8.30;81.70;;;;;;5081125;28;20510;-41
2021/03/31 02:30:15;;;;;;;12.50;8.67;;;8.20;82.00;;;;;;5097472;28;20430;-41
2021/03/31 02:32:44;;;;;;;13.00;9.37;;;8.20;82.30;;;;;;5098938;28;20492;-42
2021/03/31 02:35:10;;;;;;;9.17;8.27;;;8.20;82.50;;;;;;5081130;28;20959;-42
2021/03/31 02:37:38;;;;;;;10.60;8.53;;;8.20;82.60;;;;;;5098904;28;20442;-41
2021/03/31 02:40:05;;;;;;;9.73;8.73;;;8.10;82.80;;;;;;5080134;28;20434;-41
2021/03/31 02:42:31;;;;;;;10.87;8.37;;;8.10;82.90;;;;;;5098995;28;20504;-42
2021/03/31 02:44:59;;;;;;;11.70;8.47;;;8.10;83.20;;;;;;5097882;28;20449;-41
2021/03/31 02:47:29;;;;;;;10.20;8.43;;;8.10;83.30;;;;;;5080411;28;20426;-42
2021/03/31 02:49:58;;;;;;;13.60;9.10;;;8.10;83.40;;;;;;5080864;28;20428;-42
2021/03/31 02:52:25;;;;;;;10.83;8.60;;;8.10;83.60;;;;;;5098686;28;20415;-42
2021/03/31 02:54:52;;;;;;;12.77;9.00;;;8.00;83.50;;;;;;5080195;28;20748;-40
2021/03/31 02:57:18;;;;;;;12.80;8.20;;;8.10;83.50;;;;;;5080311;28;20403;-40
2021/03/31 02:59:45;;;;;;;13.17;8.83;;;8.00;83.40;;;;;;5080511;28;20430;-41
2021/03/31 03:02:11;;;;;;;11.13;8.87;;;8.00;83.10;;;;;;5080144;28;20483;-43
2021/03/31 03:04:40;;;;;;;11.80;9.00;;;8.00;83.20;;;;;;5080554;28;20439;-42
2021/03/31 03:07:07;;;;;;;9.90;9.00;;;8.00;83.10;;;;;;5080372;28;20451;-41
2021/03/31 03:09:33;;;;;;;10.77;9.67;;;8.00;83.10;;;;;;5079809;28;20437;-42
2021/03/31 03:11:59;;;;;;;12.10;9.27;;;8.00;83.40;;;;;;5080039;28;20411;-42
2021/03/31 03:14:25;;;;;;;12.70;9.57;;;8.00;83.60;;;;;;5080012;28;20486;-42
2021/03/31 03:16:51;;;;;;;11.63;8.43;;;8.00;83.60;;;;;;5080327;28;20414;-43
2021/03/31 03:19:17;;;;;;;11.80;8.07;;;7.90;83.90;;;;;;5098180;28;20429;-42
2021/03/31 03:21:43;;;;;;;14.20;9.53;;;7.80;84.30;;;;;;5097815;28;20172;-42
2021/03/31 03:24:12;;;;;;;9.37;8.40;;;7.80;84.60;;;;;;5097504;28;20426;-42
2021/03/31 03:26:38;;;;;;;11.70;8.33;;;7.80;84.50;;;;;;5097877;28;20415;-41
2021/03/31 03:29:05;;;;;;;11.30;9.60;;;7.80;84.60;;;;;;5079017;28;20444;-42
2021/03/31 03:31:32;;;;;;;11.67;8.90;;;7.70;84.60;;;;;;5079271;28;20681;-43
2021/03/31 03:33:59;;;;;;;13.37;9.13;;;7.70;84.90;;;;;;5078842;28;20466;-42
2021/03/31 03:36:24;;;;;;;10.90;8.10;;;7.70;85.30;;;;;;5095608;28;20437;-42
2021/03/31 03:38:50;;;;;;;12.80;8.70;;;7.70;85.20;;;;;;5078185;28;20816;-42
2021/03/31 03:41:16;;;;;;;9.53;8.53;;;7.80;84.90;;;;;;5096515;28;20237;-41
2021/03/31 03:43:42;;;;;;;9.37;8.40;;;7.70;84.80;;;;;;5100985;28;20249;-42
2021/03/31 03:46:10;;;;;;;12.47;9.53;;;7.70;84.90;;;;;;5100280;28;20540;-40
2021/03/31 03:48:36;;;;;;;10.90;9.43;;;7.70;85.10;;;;;;5101049;28;20422;-43
2021/03/31 03:51:09;;;;;;;12.20;9.80;;;7.60;85.30;;;;;;5101756;28;20407;-40
2021/03/31 03:53:35;;;;;;;12.77;9.00;;;7.60;85.50;;;;;;5101911;28;20420;-42
2021/03/31 03:56:02;;;;;;;10.10;9.07;;;7.60;85.90;;;;;;5101797;28;20415;-42
2021/03/31 03:58:28;;;;;;;12.17;9.57;;;7.50;86.00;;;;;;5101606;28;20415;-42
2021/03/31 04:00:56;;;;;;;12.00;9.30;;;7.50;86.30;;;;;;5101403;28;20413;-41
2021/03/31 04:03:22;;;;;;;11.50;8.50;;;7.50;86.50;;;;;;5101130;28;20459;-40
2021/03/31 04:05:47;;;;;;;18.13;9.80;;;7.50;86.40;;;;;;5100951;28;20743;-42
2021/03/31 04:08:13;;;;;;;9.80;8.50;;;7.50;86.50;;;;;;5100990;28;20410;-42
2021/03/31 04:10:41;;;;;;;10.70;9.00;;;7.50;86.60;;;;;;5101589;28;20267;-41
2021/03/31 04:13:07;;;;;;;13.30;9.00;;;7.40;86.50;;;;;;5083134;28;20425;-42
2021/03/31 04:15:33;;;;;;;14.03;8.80;;;7.30;86.80;;;;;;5101458;28;20559;-42
2021/03/31 04:18:01;;;;;;;10.60;7.77;;;7.30;87.20;;;;;;5100657;28;20423;-42
2021/03/31 04:20:27;;;;;;;11.00;9.20;;;7.20;87.50;;;;;;5083493;28;20448;-42
2021/03/31 04:22:53;;;;;;;11.60;8.57;;;7.20;87.90;;;;;;5082767;28;20410;-42
2021/03/31 04:25:21;;;;;;;11.20;8.83;;;7.10;88.30;;;;;;5100332;28;20435;-42
2021/03/31 04:27:48;;;;;;;11.53;9.37;;;7.10;88.50;;;;;;5100613;28;20418;-39
2021/03/31 04:30:15;;;;;;;14.87;9.20;;;7.10;88.70;;;;;;5098378;28;20491;-39
2021/03/31 04:32:46;;;;;;;12.20;10.33;;;7.10;88.50;;;;;;5099875;28;20426;-41
2021/03/31 04:35:12;;;;;;;11.67;9.50;;;7.10;88.80;;;;;;5081223;28;20726;-42
2021/03/31 04:37:39;;;;;;;11.77;9.40;;;7.10;88.70;;;;;;5099298;28;20749;-42
2021/03/31 04:40:09;;;;;;;11.90;10.20;;;7.20;88.60;;;;;;5099302;28;20428;-42
2021/03/31 04:42:34;;;;;;;11.97;8.23;;;7.20;88.70;;;;;;5100521;28;20423;-42
2021/03/31 04:45:00;;;;;;;9.90;8.87;;;7.20;88.90;;;;;;5100359;28;20437;-42
2021/03/31 04:47:26;;;;;;;12.20;9.67;;;7.20;88.30;;;;;;5100240;28;20195;-42
2021/03/31 04:49:52;;;;;;;12.33;8.60;;;7.20;88.10;;;;;;5100480;28;20415;-43
2021/03/31 04:52:17;;;;;;;13.40;9.37;;;7.20;88.40;;;;;;5082271;28;20532;-41
2021/03/31 04:54:43;;;;;;;11.13;9.87;;;7.20;88.70;;;;;;5099394;28;20462;-39
2021/03/31 04:57:09;;;;;;;11.70;9.43;;;7.10;88.80;;;;;;5100460;28;20184;-41
2021/03/31 04:59:35;;;;;;;11.13;8.67;;;7.10;89.80;;;;;;5100265;28;20418;-42
2021/03/31 05:02:00;;;;;;;12.53;8.60;;;7.00;89.40;;;;;;5099540;28;20176;-41
2021/03/31 05:04:26;;;;;;;10.93;8.90;;;7.00;90.00;;;;;;5089246;28;20200;-42
2021/03/31 05:06:52;;;;;;;14.93;9.33;;;7.00;90.00;;;;;;5080193;28;20269;-41
2021/03/31 05:09:17;;;;;;;9.73;8.73;;;7.10;90.10;;;;;;5098458;28;20499;-41
2021/03/31 05:11:43;;;;;;;10.80;8.87;;;7.00;90.10;;;;;;5099724;28;20191;-42
2021/03/31 05:14:09;;;;;;;13.00;9.30;;;7.10;90.20;;;;;;5099044;28;20220;-42
2021/03/31 05:16:34;;;;;;;10.43;9.03;;;7.10;90.40;;;;;;5099775;28;20188;-43
2021/03/31 05:19:00;;;;;;;13.67;9.00;;;7.10;90.10;;;;;;5098789;28;20584;-40
2021/03/31 05:21:26;;;;;;;12.73;9.77;;;7.20;90.10;;;;;;5097311;28;20176;-41
2021/03/31 05:23:52;;;;;;;12.17;9.40;;;7.20;90.00;;;;;;5097095;28;20184;-42
2021/03/31 05:26:17;;;;;;;10.83;9.00;;;7.20;89.80;;;;;;5098406;28;20505;-41
2021/03/31 05:28:43;;;;;;;12.40;9.30;;;7.30;90.00;;;;;;5098813;28;20184;-42
2021/03/31 05:31:09;;;;;;;12.87;9.60;;;7.30;89.70;;;;;;5098685;28;20246;-41
2021/03/31 05:33:35;;;;;;;10.57;8.97;;;7.40;89.50;;;;;;5080118;28;20279;-42
2021/03/31 05:36:00;;;;;;;12.53;9.57;;;7.50;89.30;;;;;;5098768;28;20497;-42
2021/03/31 05:38:26;;;;;;;13.00;9.77;;;7.50;88.90;;;;;;5099091;28;20169;-41
2021/03/31 05:40:56;;;;;;;10.70;9.17;;;7.60;88.90;;;;;;5099279;28;20222;-42
2021/03/31 05:43:22;;;;;;;11.20;8.43;;;7.60;89.00;;;;;;5098958;28;20844;-41
2021/03/31 05:45:47;;;;;;;9.53;8.50;;;7.60;89.60;;;;;;5098818;28;20427;-43
2021/03/31 05:48:13;;;;;;;11.30;8.77;;;7.70;88.80;;;;;;5081457;28;20187;-40
2021/03/31 05:50:39;;;;;;;13.20;8.40;;;7.80;88.60;;;;;;5099103;28;20283;-42
2021/03/31 05:53:05;;;;;;;12.33;9.07;;;7.90;88.70;;;;;;5098166;28;20453;-43
2021/03/31 05:55:30;;;;;;;12.77;9.80;;;8.00;88.50;;;;;;5098536;28;20207;-41
2021/03/31 05:57:57;;;;;;;10.27;8.67;;;8.10;87.70;;;;;;5097172;28;20643;-43
2021/03/31 06:00:23;;;;;;;9.83;8.80;;;8.20;87.30;;;;;;5095720;28;20517;-40
2021/03/31 06:02:49;;;;;;;12.10;9.90;;;8.40;87.00;;;;;;5097848;28;20820;-41
2021/03/31 06:05:16;;;;;;;12.53;10.20;;;8.50;87.00;;;;;;5096476;28;20441;-41
2021/03/31 06:07:43;;;;;;;10.77;9.67;;;8.60;87.40;;;;;;5098163;28;20414;-40
2021/03/31 06:10:17;;;;;;;12.03;9.80;;;8.70;86.40;;;;;;5097385;28;20510;-40
2021/03/31 06:12:51;;;;;;;12.40;9.77;;;8.80;86.60;;;;;;5097041;28;20827;-38
2021/03/31 06:15:21;;;;;;;11.47;9.13;;;8.90;86.20;;;;;;5096569;28;20481;-40
2021/03/31 06:17:51;;;;;;;12.77;10.37;;;9.10;85.60;;;;;;5096998;28;20435;-39
2021/03/31 06:20:40;;;;;;;13.27;10.10;;;9.30;85.00;;;;;;5079135;28;20511;-39
2021/03/31 06:23:12;;;;;;;16.27;9.73;;;9.50;84.20;;;;;;5096454;28;20489;-40
2021/03/31 06:25:46;;;;;;;10.67;9.07;;;9.60;83.10;;;;;;5096096;28;20461;-39
2021/03/31 06:28:12;;;;;;;15.00;9.60;;;9.80;81.40;;;;;;5076149;28;20422;-40
2021/03/31 06:30:38;;;;;;;17.10;10.17;;;10.00;78.20;;;;;;5096419;28;20422;-41
2021/03/31 06:33:04;;;;;;;13.97;10.33;;;10.30;76.70;;;;;;5096049;28;20180;-40
2021/03/31 06:35:30;;;;;;;13.40;9.73;;;10.50;76.00;;;;;;5078205;28;20964;-40
2021/03/31 06:38:11;;;;;;;13.00;10.10;;;10.60;75.80;;;;;;5095480;28;20476;-41
2021/03/31 06:40:48;;;;;;;10.87;9.33;;;10.80;76.10;;;;;;5074688;28;20415;-39
2021/03/31 06:45:52;;;;;;;13.10;9.13;;;11.10;74.30;;;;;;5095368;28;20500;-40
2021/03/31 06:48:20;;;;;;;16.37;9.47;;;11.20;74.10;;;;;;5096424;28;20407;-41
2021/03/31 06:50:46;;;;;;;20.67;12.57;;;11.30;74.50;;;;;;5097428;28;20498;-42
2021/03/31 06:53:12;;;;;;;12.37;9.10;;;11.40;74.90;;;;;;5097089;28;20407;-41
2021/03/31 06:55:38;;;;;;;17.60;10.47;;;11.50;75.40;;;;;;5097504;28;20474;-41
2021/03/31 06:58:07;;;;;;;20.00;10.80;;;11.60;74.00;;;;;;5097327;28;20678;-41
2021/03/31 07:00:34;;;;;;;13.03;9.60;;;11.70;73.80;;;;;;5096627;28;20491;-40
2021/03/31 07:03:04;;;;;;;16.73;10.57;;;11.90;73.50;;;;;;5077754;28;20506;-40
2021/03/31 07:05:38;;;;;;;15.03;11.47;;;12.20;73.00;;;;;;5095629;28;20426;-41
2021/03/31 07:08:06;;;;;;;16.87;11.27;;;12.50;72.10;;;;;;5094913;28;20421;-41
2021/03/31 07:10:52;;;;;;;15.30;11.40;;;12.70;71.20;;;;;;5093422;28;20449;-40
2021/03/31 07:13:32;;;;;;;14.83;12.10;;;13.00;70.90;;;;;;5094152;28;20510;-41
2021/03/31 07:16:00;;;;;;;13.43;11.07;;;13.30;70.10;;;;;;5095801;28;20438;-40
2021/03/31 07:18:27;;;;;;;12.93;11.57;;;13.50;69.30;;;;;;5094344;28;20658;-41
2021/03/31 07:20:53;;;;;;;15.10;10.37;;;13.80;67.40;;;;;;5095309;28;20429;-40
2021/03/31 07:23:24;;;;;;;11.63;9.03;;;14.10;64.60;;;;;;5076099;28;20422;-39
2021/03/31 07:25:50;;;;;;;17.47;7.90;;;14.40;62.90;;;;;;5095625;28;20438;-41
2021/03/31 07:28:23;;;;;;;17.33;9.83;;;14.70;60.10;;;;;;5095149;28;20406;-41
2021/03/31 07:30:50;;;;;;;10.43;9.30;;;14.90;58.40;;;;;;5077835;28;20173;-40
2021/03/31 07:33:22;;;;;;;11.97;10.07;;;15.30;57.50;;;;;;5096169;28;20403;-41
2021/03/31 07:35:49;;;;;;;11.73;8.97;;;15.70;56.20;;;;;;5096753;28;20474;-41
2021/03/31 07:38:18;;;;;;;10.73;8.00;;;16.30;54.70;;;;;;5096901;28;20410;-41
2021/03/31 07:40:44;;;;;;;12.00;9.20;;;17.10;52.60;;;;;;5096017;28;20423;-41
2021/03/31 07:43:24;;;;;;;10.40;9.20;;;17.80;50.90;;;;;;5077667;28;20424;-40
2021/03/31 07:46:17;;;;;;;11.80;8.83;;;18.50;49.60;;;;;;5078271;28;20513;-39
2021/03/31 07:48:43;;;;;;;12.73;9.80;;;18.80;46.70;;;;;;5075435;28;20529;-42
2021/03/31 07:51:27;;;;;;;14.57;9.67;;;19.70;46.20;;;;;;5096115;28;20849;-40
2021/03/31 07:53:54;;;;;;;11.87;9.53;;;20.50;43.30;;;;;;5095756;28;20466;-40
2021/03/31 07:56:22;;;;;;;13.27;9.67;;;21.20;41.80;;;;;;5076604;28;20426;-42
2021/03/31 07:59:04;;;;;;;17.30;11.03;;;21.70;40.80;;;;;;5093684;28;20423;-42
2021/03/31 08:01:34;;;;;;;15.13;9.20;;;22.30;39.10;;;;;;5093300;28;20426;-39
2021/03/31 08:04:01;;;;;;;13.53;10.73;;;22.60;38.20;;;;;;5090852;28;20471;-42
2021/03/31 08:06:30;;;;;;;15.00;11.90;;;22.90;37.50;;;;;;5093209;28;20502;-41
2021/03/31 08:09:02;;;;;;;12.87;10.87;;;23.00;36.90;;;;;;5090416;28;20943;-41
2021/03/31 08:12:05;;;;;;;14.50;10.40;;;23.50;36.70;;;;;;5094551;28;20426;-41
2021/03/31 08:14:30;;;;;;;14.83;9.93;;;24.30;35.80;;;;;;5093061;28;20481;-39
2021/03/31 08:16:58;;;;;;;13.33;11.47;;;25.00;35.50;;;;;;5093862;28;20836;-41
2021/03/31 08:19:29;;;;;;;13.30;10.20;;;25.20;34.60;;;;;;5094741;28;20203;-41
2021/03/31 08:21:57;;;;;;;14.80;11.63;;;25.10;33.80;;;;;;5094163;28;20438;-41
2021/03/31 08:24:44;;;;;;;14.87;11.67;;;25.80;33.00;;;;;;5075922;28;20442;-43
2021/03/31 08:27:10;;;;;;;12.43;10.40;;;26.50;32.50;;;;;;5078234;28;20432;-42
2021/03/31 08:29:36;;;;;;;13.80;11.40;;;26.90;32.40;;;;;;5098505;28;20593;-42
2021/03/31 08:32:05;;;;;;;12.80;11.20;;;27.00;31.30;;;;;;5098695;28;20422;-41
2021/03/31 08:34:32;;;;;;;13.80;11.50;;;27.70;31.00;;;;;;5098994;28;20216;-42
2021/03/31 08:36:59;;;;;;;14.10;11.10;;;28.00;30.00;;;;;;5100604;28;20754;-43
2021/03/31 08:39:25;;;;;;;12.70;10.50;;;28.10;30.00;;;;;;5100094;28;20450;-38
2021/03/31 08:41:53;;;;;;;14.27;11.23;;;28.80;30.00;;;;;;5100179;28;20832;-41
2021/03/31 08:44:41;;;;;;;11.87;10.43;;;28.50;29.50;;;;;;5097916;28;20570;-43
2021/03/31 08:47:11;;;;;;;13.80;11.00;;;29.20;29.60;;;;;;5097952;28;20421;-43
2021/03/31 08:49:39;;;;;;;14.10;12.33;;;29.80;29.10;;;;;;5098586;28;20423;-42
2021/03/31 08:52:08;;;;;;;12.93;11.60;;;29.80;28.40;;;;;;5099198;28;20407;-43
2021/03/31 08:54:39;;;;;;;12.53;11.30;;;30.20;28.40;;;;;;5079347;28;20512;-43
2021/03/31 08:57:09;;;;;;;11.60;10.40;;;30.50;28.60;;;;;;5097365;28;20410;-41
2021/03/31 08:59:36;;;;;;;11.63;10.53;;;30.80;28.30;;;;;;5097998;28;20580;-43
2021/03/31 09:02:04;;;;;;;13.10;11.50;;;31.10;28.00;;;;;;5098366;28;20774;-43
2021/03/31 09:04:31;;;;;;;14.73;11.53;;;31.50;27.80;;;;;;5097072;28;20470;-43
2021/03/31 09:06:57;;;;;;;14.03;12.13;;;31.50;27.40;;;;;;5098194;28;20377;-43
2021/03/31 09:09:23;;;;;;;11.97;10.87;;;29.80;27.70;;;;;;5097000;28;20457;-42
2021/03/31 09:12:18;;;;;;;13.07;10.20;;;30.00;27.70;;;;;;5097017;28;20862;-43
2021/03/31 09:14:49;;;;;;;11.17;10.10;;;29.00;28.00;;;;;;5097103;28;20541;-43
2021/03/31 09:17:22;;;;;;;12.63;11.20;;;29.20;27.90;;;;;;5096532;28;20434;-43
2021/03/31 09:19:52;;;;;;;11.23;9.87;;;28.10;28.00;;;;;;5096575;28;20427;-43
2021/03/31 09:22:23;;;;;;;12.83;9.97;;;28.00;28.70;;;;;;5097946;28;20402;-43
2021/03/31 09:24:53;;;;;;;11.90;10.10;;;28.40;28.50;;;;;;5097627;28;20690;-44
2021/03/31 09:27:22;;;;;;;12.07;9.70;;;28.40;28.40;;;;;;5097354;28;20779;-41
2021/03/31 09:29:50;;;;;;;10.37;8.43;;;28.70;28.50;;;;;;5095770;28;20441;-42
2021/03/31 09:32:20;;;;;;;13.27;9.47;;;28.70;27.90;;;;;;5098388;28;20422;-43
2021/03/31 09:34:46;;;;;;;11.00;9.40;;;28.70;27.70;;;;;;5098495;28;20474;-43
2021/03/31 09:37:14;;;;;;;11.53;10.43;;;27.80;28.00;;;;;;5099352;28;20425;-43
2021/03/31 09:39:54;;;;;;;11.03;9.63;;;28.00;27.90;;;;;;5097630;28;20445;-43
2021/03/31 09:42:22;;;;;;;14.20;10.27;;;28.40;28.40;;;;;;5080174;28;20418;-42
2021/03/31 09:44:49;;;;;;;10.40;9.20;;;29.60;27.80;;;;;;5098247;28;20499;-43
2021/03/31 09:47:17;;;;;;;9.83;8.77;;;30.40;27.40;;;;;;5099180;28;20721;-43
2021/03/31 09:49:44;;;;;;;9.17;8.37;;;31.30;27.20;;;;;;5098082;28;20408;-43
2021/03/31 09:52:11;;;;;;;12.40;9.17;;;32.20;26.60;;;;;;5098757;28;20422;-43
2021/03/31 09:54:37;;;;;;;10.17;8.57;;;33.10;26.20;;;;;;5097309;28;20545;-43
2021/03/31 09:57:06;;;;;;;10.20;9.20;;;33.90;25.60;;;;;;5097575;28;20432;-44
2021/03/31 09:59:32;;;;;;;10.33;8.77;;;35.00;25.10;;;;;;5080360;28;20415;-43
2021/03/31 10:01:59;;;;;;;10.20;9.20;;;35.50;24.30;;;;;;5097199;28;20517;-43
2021/03/31 10:04:25;;;;;;;10.53;9.43;;;35.30;24.50;;;;;;5096658;28;20511;-42
2021/03/31 10:07:10;;;;;;;10.13;9.20;;;35.40;23.90;;;;;;5096917;28;20461;-43
2021/03/31 10:09:40;;;;;;;11.10;10.00;;;36.90;24.00;;;;;;5095704;28;20840;-43
2021/03/31 10:12:07;;;;;;;11.00;9.87;;;37.50;22.80;;;;;;5096054;28;20441;-44
2021/03/31 10:14:42;;;;;;;10.27;9.27;;;37.50;22.80;;;;;;5077025;28;20512;-43
2021/03/31 10:17:10;;;;;;;10.63;8.47;;;37.20;22.10;;;;;;5096892;28;20407;-43
2021/03/31 10:19:35;;;;;;;9.20;8.40;;;37.80;22.30;;;;;;5079239;28;20449;-43
2021/03/31 10:22:08;;;;;;;8.43;7.63;;;38.40;22.20;;;;;;5097438;28;20397;-43
2021/03/31 10:24:40;;;;;;;9.23;8.43;;;39.20;22.30;;;;;;5096497;28;20250;-42
2021/03/31 10:27:06;;;;;;;9.03;8.10;;;40.00;21.70;;;;;;5096964;28;20411;-43
2021/03/31 10:29:33;;;;;;;8.93;8.23;;;40.40;21.40;;;;;;5098411;28;20411;-43
2021/03/31 10:32:01;;;;;;;10.80;9.77;;;40.20;21.30;;;;;;5098264;28;20645;-42
2021/03/31 10:34:38;;;;;;;8.63;7.90;;;39.50;20.80;;;;;;5096941;28;20422;-43
2021/03/31 10:56:19;;;;;;;8.60;7.80;;;38.30;19.60;;;;;;5093439;28;20726;-43
2021/03/31 10:58:45;;;;;;;8.93;8.20;;;38.60;19.60;;;;;;5079391;28;20872;-43
2021/03/31 11:01:11;;;;;;;7.33;6.73;;;39.30;19.80;;;;;;5078928;28;20445;-43
2021/03/31 11:03:37;;;;;;;7.67;6.97;;;40.20;20.70;;;;;;5078596;28;20860;-44
2021/03/31 11:06:03;;;;;;;8.97;8.07;;;41.10;20.10;;;;;;5096709;28;20176;-43
2021/03/31 11:08:29;;;;;;;8.83;8.13;;;41.10;19.50;;;;;;5097536;28;20418;-43
2021/03/31 11:10:55;;;;;;;8.60;7.80;;;41.20;18.70;;;;;;5097818;28;20851;-43
2021/03/31 11:13:21;;;;;;;9.93;9.03;;;40.30;19.10;;;;;;5097124;28;20895;-43
2021/03/31 11:15:47;;;;;;;8.97;8.17;;;38.80;19.30;;;;;;5096040;28;20430;-43
2021/03/31 11:18:43;;;;;;;9.50;8.70;;;39.50;19.90;;;;;;5096873;28;20425;-42
2021/03/31 11:26:38;;;;;;;9.80;8.90;;;35.30;20.90;;;;;;5096773;28;20855;-43
2021/03/31 11:29:04;;;;;;;9.70;8.80;;;32.90;21.20;;;;;;5096218;28;20415;-43
2021/03/31 11:31:30;;;;;;;10.47;8.20;;;33.80;21.40;;;;;;5097325;28;20271;-43
2021/03/31 11:33:56;;;;;;;10.37;8.87;;;34.50;20.90;;;;;;5077078;28;20501;-43
2021/03/31 11:36:21;;;;;;;9.97;9.07;;;34.60;20.50;;;;;;5094549;28;20183;-42
2021/03/31 11:38:47;;;;;;;12.03;8.00;;;33.90;21.00;;;;;;5093979;28;20183;-43
2021/03/31 11:41:13;;;;;;;9.40;8.50;;;35.80;20.90;;;;;;5095347;28;20450;-41
2021/03/31 11:43:39;;;;;;;10.13;9.23;;;36.70;20.10;;;;;;5095033;28;20486;-44
2021/03/31 11:46:05;;;;;;;8.30;7.50;;;36.20;19.80;;;;;;5094956;28;20539;-43
2021/03/31 11:48:31;;;;;;;8.07;7.00;;;35.30;20.10;;;;;;5074698;28;20886;-43
2021/03/31 11:50:57;;;;;;;8.10;7.40;;;36.80;20.60;;;;;;5093777;28;20172;-43
2021/03/31 11:53:29;;;;;;;9.80;7.70;;;38.10;20.30;;;;;;5093947;28;20177;-43
2021/03/31 11:55:59;;;;;;;8.13;7.30;;;37.70;19.80;;;;;;5075717;28;20445;-43
2021/03/31 11:58:25;;;;;;;8.77;7.97;;;37.20;19.60;;;;;;5074706;28;21011;-43
2021/03/31 12:00:51;;;;;;;8.47;7.67;;;35.20;20.10;;;;;;5092872;28;20437;-43
2021/03/31 12:03:18;;;;;;;10.27;8.13;;;34.80;20.60;;;;;;5093991;28;20435;-43
2021/03/31 12:05:44;;;;;;;10.10;8.60;;;37.10;21.00;;;;;;5098242;28;20899;-43
2021/03/31 12:08:10;;;;;;;8.57;7.77;;;38.90;20.30;;;;;;5097502;28;20858;-42
2021/03/31 12:10:35;;;;;;;7.30;6.43;;;40.00;20.20;;;;;;5096878;28;20421;-44
2021/03/31 12:13:01;;;;;;;7.40;6.80;;;40.70;19.80;;;;;;5097736;28;20500;-44
2021/03/31 12:15:27;;;;;;;8.70;6.43;;;41.20;20.50;;;;;;5079331;28;20482;-43
2021/03/31 12:17:54;;;;;;;6.60;5.90;;;42.00;19.90;;;;;;5097542;28;20275;-43
2021/03/31 12:20:20;;;;;;;6.97;6.37;;;42.30;19.90;;;;;;5098011;28;20188;-43
2021/03/31 12:22:46;;;;;;;10.20;9.30;;;43.00;19.60;;;;;;5099540;28;20426;-43
2021/03/31 12:25:13;;;;;;;9.50;8.70;;;43.00;19.60;;;;;;5100209;28;20546;-43
2021/03/31 12:27:41;;;;;;;12.10;9.20;;;43.30;19.70;;;;;;5100224;28;20263;-43
2021/03/31 12:30:12;;;;;;;11.70;10.60;;;43.50;19.80;;;;;;5100257;28;20478;-43
2021/03/31 12:32:38;;;;;;;10.13;9.20;;;43.80;19.80;;;;;;5100465;28;20786;-44
2021/03/31 12:35:05;;;;;;;11.13;10.10;;;43.90;20.40;;;;;;5098587;28;20510;-44
2021/03/31 12:37:31;;;;;;;11.90;10.80;;;44.20;20.20;;;;;;5099447;28;20425;-44
2021/03/31 12:39:57;;;;;;;10.00;8.17;;;43.90;20.20;;;;;;5098061;28;20429;-43
2021/03/31 12:42:23;;;;;;;10.67;9.70;;;44.40;19.80;;;;;;5097424;28;20429;-43
2021/03/31 12:44:49;;;;;;;10.23;9.23;;;44.10;19.30;;;;;;5095566;28;20216;-43
2021/03/31 12:47:18;;;;;;;12.87;10.67;;;44.10;19.60;;;;;;5080122;28;20419;-43
2021/03/31 12:49:46;;;;;;;12.40;11.40;;;44.40;19.70;;;;;;5097425;28;20437;-43
2021/03/31 12:52:14;;;;;;;11.63;10.53;;;41.00;19.80;;;;;;5096821;28;20719;-46
2021/03/31 12:57:25;;;;;;;11.33;10.33;;;41.90;20.30;;;;;;5094738;28;20629;-43
2021/03/31 12:59:52;;;;;;;11.97;10.20;;;42.20;20.60;;;;;;5096249;28;20457;-44
2021/03/31 13:02:17;;;;;;;12.23;11.13;;;42.60;20.10;;;;;;5095042;28;20426;-42
2021/03/31 13:04:43;;;;;;;11.00;10.00;;;42.50;20.00;;;;;;5092799;28;20478;-43
2021/03/31 13:07:10;;;;;;;11.30;10.00;;;42.70;20.60;;;;;;5082770;28;20193;-44
2021/03/31 13:09:35;;;;;;;11.90;10.90;;;43.20;20.00;;;;;;5086090;28;20187;-43
2021/03/31 13:12:04;;;;;;;11.70;10.80;;;43.30;19.80;;;;;;5095142;28;20835;-43
2021/03/31 13:17:25;;;;;;;12.87;11.57;;;43.70;19.90;;;;;;5096567;28;20406;-44
2021/03/31 13:22:55;;;;;;;13.43;12.30;;;44.30;20.50;;;;;;5096590;28;20776;-45
2021/03/31 13:25:56;;;;;;;11.97;10.97;;;44.70;20.00;;;;;;5096330;28;20466;-44
2021/03/31 13:28:37;;;;;;;12.80;11.70;;;45.20;19.90;;;;;;5092806;28;20521;-43